createdAt,value
2023-05-09T00:01:24.754Z,19.45
2023-05-09T00:03:52.879Z,19.35
2023-05-09T00:06:19.900Z,21.55
2023-05-09T00:08:46.810Z,19.00
2023-05-09T00:11:13.908Z,20.92
2023-05-09T00:13:41.960Z,21.13
2023-05-09T00:16:09.347Z,21.63
2023-05-09T00:18:37.553Z,21.20
2023-05-09T00:21:04.469Z,21.85
2023-05-09T00:23:31.341Z,23.10
2023-05-09T00:25:59.142Z,22.13
2023-05-09T00:28:25.930Z,21.90
2023-05-09T00:30:52.889Z,24.05
2023-05-09T00:33:20.398Z,22.33
2023-05-09T00:35:47.376Z,23.52
2023-05-09T00:38:14.452Z,23.02
2023-05-09T00:40:41.322Z,22.73
2023-05-09T00:43:08.166Z,22.52
2023-05-09T00:45:35.024Z,22.13
2023-05-09T00:48:01.843Z,23.92
2023-05-09T00:50:28.756Z,19.23
2023-05-09T00:52:55.557Z,20.17
2023-05-09T00:55:22.645Z,18.73
2023-05-09T00:57:49.484Z,18.27
2023-05-09T01:00:17.199Z,18.35
2023-05-09T01:02:47.558Z,18.63
2023-05-09T01:05:14.924Z,17.65
2023-05-09T01:08:00.063Z,19.38
2023-05-09T01:10:44.649Z,16.35
2023-05-09T01:13:50.849Z,18.23
2023-05-09T01:16:28.761Z,17.88
2023-05-09T01:19:01.040Z,18.23
2023-05-09T01:21:29.423Z,18.27
2023-05-09T01:23:56.281Z,18.95
2023-05-09T01:26:30.798Z,16.75
2023-05-09T01:29:12.625Z,17.58
2023-05-09T01:31:41.633Z,19.40
2023-05-09T01:34:08.837Z,22.10
2023-05-09T01:36:36.342Z,21.80
2023-05-09T01:39:04.284Z,24.20
2023-05-09T01:41:31.558Z,21.65
2023-05-09T01:43:59.360Z,20.90
2023-05-09T01:46:26.316Z,22.33
2023-05-09T01:48:53.122Z,19.75
2023-05-09T01:51:19.929Z,22.30
2023-05-09T01:53:46.710Z,20.90
2023-05-09T01:56:13.550Z,23.92
2023-05-09T01:58:41.118Z,22.48
2023-05-09T02:01:08.001Z,21.85
2023-05-09T02:03:34.812Z,19.52
2023-05-09T02:06:01.637Z,19.08
2023-05-09T02:08:28.485Z,20.20
2023-05-09T02:10:55.424Z,19.20
2023-05-09T02:13:22.358Z,20.80
2023-05-09T02:15:49.212Z,22.92
2023-05-09T02:18:17.309Z,22.90
2023-05-09T02:20:44.933Z,21.42
2023-05-09T02:23:12.044Z,21.33
2023-05-09T02:25:39.041Z,19.83
2023-05-09T02:28:05.946Z,17.13
2023-05-09T02:30:35.500Z,15.88
2023-05-09T02:33:04.087Z,14.20
2023-05-09T02:35:30.960Z,13.38
2023-05-09T02:37:58.801Z,12.40
2023-05-09T02:40:28.823Z,13.00
2023-05-09T02:42:56.241Z,12.48
2023-05-09T02:45:23.496Z,12.52
2023-05-09T02:47:50.326Z,13.13
2023-05-09T02:50:17.226Z,13.70
2023-05-09T02:52:44.008Z,12.38
2023-05-09T02:55:10.903Z,12.75
2023-05-09T02:57:37.763Z,12.52
2023-05-09T03:00:14.445Z,12.52
2023-05-09T03:02:41.431Z,12.43
2023-05-09T03:05:08.747Z,13.80
2023-05-09T03:07:35.807Z,13.93
2023-05-09T03:10:02.687Z,13.85
2023-05-09T03:12:29.516Z,13.68
2023-05-09T03:14:56.288Z,13.93
2023-05-09T03:17:23.271Z,13.80
2023-05-09T03:19:50.198Z,14.77
2023-05-09T03:22:17.062Z,15.50
2023-05-09T03:24:43.972Z,13.88
2023-05-09T03:27:10.745Z,14.25
2023-05-09T03:29:37.534Z,14.98
2023-05-09T03:32:04.967Z,15.60
2023-05-09T03:34:31.827Z,15.32
2023-05-09T03:36:58.778Z,16.10
2023-05-09T03:39:25.590Z,16.58
2023-05-09T03:41:52.424Z,15.05
2023-05-09T03:44:19.315Z,16.20
2023-05-09T03:46:46.232Z,15.13
2023-05-09T03:49:13.076Z,16.05
2023-05-09T03:51:42.021Z,15.75
2023-05-09T03:54:09.069Z,15.02
2023-05-09T03:56:36.054Z,14.73
2023-05-09T03:59:02.924Z,15.30
2023-05-09T04:01:29.832Z,16.75
2023-05-09T04:03:57.778Z,13.65
2023-05-09T04:06:24.661Z,12.40
2023-05-09T04:08:51.505Z,10.40
2023-05-09T04:11:18.356Z,8.60
2023-05-09T04:13:45.424Z,8.77
2023-05-09T04:16:12.263Z,7.82
2023-05-09T04:18:42.224Z,8.02
2023-05-09T04:21:09.498Z,6.87
2023-05-09T04:23:36.264Z,11.60
2023-05-09T04:26:03.371Z,6.90
2023-05-09T04:28:30.367Z,8.25
2023-05-09T04:30:57.337Z,7.22
2023-05-09T04:33:24.476Z,6.88
2023-05-09T04:35:51.829Z,6.72
2023-05-09T04:38:18.708Z,6.10
2023-05-09T04:40:46.216Z,6.88
2023-05-09T04:43:13.017Z,7.10
2023-05-09T04:45:39.868Z,6.80
2023-05-09T04:48:06.822Z,6.35
2023-05-09T04:50:33.802Z,8.07
2023-05-09T04:53:00.696Z,8.50
2023-05-09T04:55:27.541Z,7.18
2023-05-09T04:57:54.398Z,7.80
2023-05-09T05:00:21.357Z,8.02
2023-05-09T05:02:48.303Z,7.57
2023-05-09T05:05:15.174Z,7.97
2023-05-09T05:07:41.967Z,10.32
2023-05-09T05:10:09.298Z,7.28
2023-05-09T05:12:36.317Z,7.53
2023-05-09T05:15:03.192Z,6.47
2023-05-09T05:17:30.056Z,6.30
2023-05-09T05:19:56.975Z,6.30
2023-05-09T05:22:24.340Z,6.22
2023-05-09T05:24:51.214Z,6.20
2023-05-09T05:27:18.154Z,6.22
2023-05-09T05:29:44.999Z,6.93
2023-05-09T05:32:12.091Z,10.13
2023-05-09T05:34:39.493Z,7.97
2023-05-09T05:37:06.458Z,11.18
2023-05-09T05:39:33.453Z,7.78
2023-05-09T05:42:00.253Z,8.23
2023-05-09T05:44:27.047Z,7.93
2023-05-09T05:46:53.870Z,7.13
2023-05-09T05:49:20.683Z,8.18
2023-05-09T05:51:47.481Z,7.93
2023-05-09T05:54:14.454Z,7.18
2023-05-09T05:56:41.336Z,6.47
2023-05-09T05:59:08.188Z,7.40
2023-05-09T06:01:35.017Z,8.93
2023-05-09T06:04:01.930Z,7.63
2023-05-09T06:06:28.836Z,6.90
2023-05-09T06:08:55.745Z,7.75
2023-05-09T06:11:22.713Z,7.97
2023-05-09T06:13:49.494Z,7.75
2023-05-09T06:16:19.875Z,7.07
2023-05-09T06:18:47.677Z,6.85
2023-05-09T06:21:14.483Z,6.97
2023-05-09T06:23:57.029Z,6.90
2023-05-09T06:26:28.164Z,6.70
2023-05-09T06:28:54.992Z,6.35
2023-05-09T06:31:22.495Z,6.88
2023-05-09T06:33:50.390Z,6.90
2023-05-09T06:36:17.269Z,7.03
2023-05-09T06:38:44.098Z,6.53
2023-05-09T06:41:10.929Z,7.75
2023-05-09T06:43:37.708Z,7.28
2023-05-09T06:46:04.578Z,6.90
2023-05-09T06:48:31.774Z,7.05
2023-05-09T06:50:58.631Z,6.88
2023-05-09T06:53:25.434Z,7.00
2023-05-09T06:55:52.342Z,6.90
2023-05-09T06:58:19.762Z,6.97
2023-05-09T07:00:47.524Z,6.53
2023-05-09T07:03:14.453Z,6.63
2023-05-09T07:05:41.226Z,6.32
2023-05-09T07:08:08.110Z,5.90
2023-05-09T07:10:35.092Z,6.45
2023-05-09T07:13:02.117Z,6.47
2023-05-09T07:15:40.625Z,6.88
2023-05-09T07:18:08.677Z,7.00
2023-05-09T07:20:35.570Z,7.60
2023-05-09T07:23:04.089Z,7.47
2023-05-09T07:25:30.970Z,8.07
2023-05-09T07:27:58.027Z,7.65
2023-05-09T07:30:25.264Z,8.50
2023-05-09T07:32:52.354Z,15.85
2023-05-09T07:35:19.920Z,25.63
2023-05-09T07:37:46.822Z,12.23
2023-05-09T07:40:14.371Z,13.20
2023-05-09T07:42:42.146Z,11.10
2023-05-09T07:45:10.871Z,12.82
2023-05-09T07:47:37.715Z,16.75
2023-05-09T07:50:04.830Z,13.95
2023-05-09T07:52:31.668Z,18.25
2023-05-09T07:54:58.673Z,12.95
2023-05-09T07:57:25.555Z,15.02
2023-05-09T07:59:52.403Z,15.90
2023-05-09T08:02:19.271Z,13.40
2023-05-09T08:04:48.959Z,19.48
2023-05-09T08:07:16.172Z,10.25
2023-05-09T08:09:43.095Z,16.33
2023-05-09T08:12:09.950Z,26.08
2023-05-09T08:14:36.764Z,17.25
2023-05-09T08:17:03.569Z,14.15
2023-05-09T08:19:30.457Z,11.15
2023-05-09T08:21:57.315Z,12.80
2023-05-09T08:24:24.177Z,9.48
2023-05-09T08:26:51.054Z,10.40
2023-05-09T08:29:17.900Z,10.07
2023-05-09T08:31:44.777Z,9.85
2023-05-09T08:34:11.624Z,9.10
2023-05-09T08:36:39.449Z,12.50
2023-05-09T08:39:06.300Z,10.70
2023-05-09T08:41:35.994Z,13.40
2023-05-09T08:44:02.999Z,13.67
2023-05-09T08:46:32.519Z,14.93
2023-05-09T08:48:59.330Z,24.08
2023-05-09T08:51:26.150Z,24.23
2023-05-09T08:53:53.007Z,15.57
2023-05-09T08:56:19.772Z,11.73
2023-05-09T08:58:46.762Z,17.42
2023-05-09T09:01:14.090Z,10.45
2023-05-09T09:03:45.626Z,13.05
2023-05-09T09:06:13.335Z,16.85
2023-05-09T09:08:40.401Z,21.45
2023-05-09T09:11:07.331Z,13.77
2023-05-09T09:13:35.564Z,13.98
2023-05-09T09:16:02.431Z,17.65
2023-05-09T09:18:30.160Z,19.63
2023-05-09T09:20:59.904Z,11.40
2023-05-09T09:23:27.289Z,14.48
2023-05-09T09:26:02.253Z,9.63
2023-05-09T09:28:29.595Z,9.85
2023-05-09T09:30:56.618Z,15.60
2023-05-09T09:33:24.508Z,9.07
2023-05-09T09:35:52.230Z,16.33
2023-05-09T09:38:19.752Z,17.75
2023-05-09T09:40:52.451Z,12.30
2023-05-09T09:43:19.420Z,13.40
2023-05-09T09:45:51.008Z,10.57
2023-05-09T09:48:17.866Z,15.02
2023-05-09T09:50:44.692Z,13.35
2023-05-09T09:53:11.568Z,9.25
2023-05-09T09:55:38.332Z,11.82
2023-05-09T09:58:06.283Z,11.13
2023-05-09T10:00:33.205Z,11.88
2023-05-09T10:03:00.870Z,15.30
2023-05-09T10:05:31.328Z,10.00
2023-05-09T10:07:59.424Z,12.05
2023-05-09T10:10:35.802Z,12.13
2023-05-09T10:13:04.953Z,16.88
2023-05-09T10:15:41.555Z,12.70
2023-05-09T10:20:40.930Z,13.15
2023-05-09T10:23:07.671Z,16.00
2023-05-09T10:25:44.508Z,19.02
2023-05-09T10:28:12.766Z,14.20
2023-05-09T10:31:01.842Z,18.27
2023-05-09T10:33:34.624Z,9.63
2023-05-09T10:36:01.399Z,11.05
2023-05-09T10:38:28.436Z,10.70
2023-05-09T10:40:55.244Z,7.20
2023-05-09T10:43:24.129Z,8.32
2023-05-09T10:45:51.985Z,10.82
2023-05-09T10:48:18.861Z,16.38
2023-05-09T10:50:46.422Z,14.27
2023-05-09T10:53:17.704Z,7.28
2023-05-09T10:55:47.550Z,5.82
2023-05-09T10:58:27.182Z,8.73
2023-05-09T11:01:00.562Z,7.60
2023-05-09T11:03:28.622Z,6.97
2023-05-09T11:05:56.663Z,6.90
2023-05-09T11:08:29.867Z,12.20
2023-05-09T11:10:57.784Z,11.93
2023-05-09T11:13:25.532Z,5.75
2023-05-09T11:16:04.844Z,5.43
2023-05-09T11:18:32.757Z,5.13
2023-05-09T11:20:59.947Z,6.70
2023-05-09T11:23:27.505Z,4.30
2023-05-09T11:25:54.340Z,5.80
2023-05-09T11:28:31.781Z,5.10
2023-05-09T11:31:24.886Z,8.43
2023-05-09T11:33:58.355Z,6.70
2023-05-09T11:36:30.128Z,8.70
2023-05-09T11:39:06.796Z,7.10
2023-05-09T11:41:44.336Z,7.72
2023-05-09T11:44:15.481Z,13.88
2023-05-09T11:46:42.856Z,10.98
2023-05-09T11:49:11.970Z,11.50
2023-05-09T11:51:39.330Z,7.00
2023-05-09T11:54:07.229Z,9.23
2023-05-09T11:56:38.953Z,10.73
2023-05-09T11:59:06.496Z,7.38
2023-05-09T12:01:33.298Z,8.77
2023-05-09T12:04:00.534Z,5.03
2023-05-09T12:06:28.385Z,5.90
2023-05-09T12:08:55.824Z,5.90
2023-05-09T12:11:23.845Z,4.22
2023-05-09T12:13:51.873Z,4.43
2023-05-09T12:16:19.409Z,3.08
2023-05-09T12:18:50.102Z,10.60
2023-05-09T12:23:44.623Z,5.03
2023-05-09T12:26:11.460Z,9.73
2023-05-09T12:28:38.328Z,2.67
2023-05-09T12:31:05.932Z,8.77
2023-05-09T12:33:32.894Z,4.80
2023-05-09T12:36:06.549Z,5.10
2023-05-09T12:38:33.699Z,11.70
2023-05-09T12:41:04.514Z,9.18
2023-05-09T12:43:35.300Z,6.75
2023-05-09T12:46:02.451Z,8.43
2023-05-09T12:48:30.206Z,3.83
2023-05-09T12:50:57.060Z,5.43
2023-05-09T12:53:25.400Z,2.92
2023-05-09T12:55:56.502Z,3.55
2023-05-09T12:58:23.392Z,7.20
2023-05-09T13:00:50.231Z,8.15
2023-05-09T13:03:21.792Z,9.70
2023-05-09T13:05:56.758Z,4.10
2023-05-09T13:08:23.560Z,3.00
2023-05-09T13:10:52.205Z,3.00
2023-05-09T13:13:21.787Z,5.47
2023-05-09T13:15:48.819Z,3.40
2023-05-09T13:18:15.755Z,3.60
2023-05-09T13:20:42.546Z,6.40
2023-05-09T13:23:09.424Z,2.83
2023-05-09T13:25:36.212Z,3.97
2023-05-09T13:28:04.656Z,8.10
2023-05-09T13:30:32.353Z,3.72
2023-05-09T13:33:06.332Z,3.85
2023-05-09T13:38:06.616Z,8.65
2023-05-09T13:40:33.378Z,14.60
2023-05-09T13:43:00.132Z,6.53
2023-05-09T13:45:26.917Z,7.25
2023-05-09T13:47:53.765Z,7.25
2023-05-09T13:50:20.710Z,10.95
2023-05-09T13:52:47.507Z,4.28
2023-05-09T13:55:14.246Z,3.60
2023-05-09T13:57:40.991Z,11.68
2023-05-09T14:00:08.676Z,6.05
2023-05-09T14:02:35.661Z,8.18
2023-05-09T14:05:03.231Z,9.05
2023-05-09T14:07:30.129Z,10.93
2023-05-09T14:10:16.146Z,3.38
2023-05-09T14:12:44.572Z,3.13
2023-05-09T14:15:11.503Z,3.70
2023-05-09T14:17:38.536Z,3.13
2023-05-09T14:20:06.575Z,4.75
2023-05-09T14:22:33.411Z,5.60
2023-05-09T14:25:00.328Z,7.72
2023-05-09T14:27:27.575Z,7.25
2023-05-09T14:29:54.363Z,6.18
2023-05-09T14:32:21.189Z,5.85
2023-05-09T14:34:49.748Z,5.65
2023-05-09T14:37:16.926Z,8.52
2023-05-09T14:39:45.218Z,7.18
2023-05-09T14:42:14.312Z,4.65
2023-05-09T14:44:41.780Z,6.68
2023-05-09T14:47:09.507Z,3.78
2023-05-09T14:49:37.105Z,4.95
2023-05-09T14:52:03.909Z,6.03
2023-05-09T14:54:31.600Z,5.38
2023-05-09T14:56:59.590Z,5.65
2023-05-09T14:59:26.486Z,5.43
2023-05-09T15:01:53.728Z,5.18
2023-05-09T15:04:20.651Z,5.53
2023-05-09T15:06:47.519Z,4.72
2023-05-09T15:09:14.748Z,2.97
2023-05-09T15:11:48.122Z,7.30
2023-05-09T15:14:16.586Z,3.55
2023-05-09T15:16:43.837Z,5.28
2023-05-09T15:19:10.876Z,4.00
2023-05-09T15:21:37.672Z,3.03
2023-05-09T15:24:05.145Z,6.47
2023-05-09T15:26:32.330Z,7.30
2023-05-09T15:28:59.253Z,4.03
2023-05-09T15:31:26.387Z,3.45
2023-05-09T15:33:53.285Z,5.47
2023-05-09T15:36:20.031Z,3.53
2023-05-09T15:38:49.741Z,6.78
2023-05-09T15:41:17.070Z,9.00
2023-05-09T15:43:44.001Z,9.30
2023-05-09T15:46:11.110Z,8.85
2023-05-09T15:48:37.964Z,7.00
2023-05-09T15:51:04.976Z,8.25
2023-05-09T15:53:31.844Z,4.95
2023-05-09T15:55:58.668Z,7.05
2023-05-09T15:58:25.655Z,7.97
2023-05-09T16:00:52.536Z,7.43
2023-05-09T16:03:19.644Z,8.68
2023-05-09T16:05:46.625Z,5.53
2023-05-09T16:08:13.389Z,5.63
2023-05-09T16:10:40.831Z,4.78
2023-05-09T16:13:08.038Z,3.80
2023-05-09T16:15:35.265Z,6.15
2023-05-09T16:18:02.055Z,8.80
2023-05-09T16:20:29.022Z,3.55
2023-05-09T16:22:55.817Z,4.82
2023-05-09T16:25:22.830Z,8.90
2023-05-09T16:27:49.657Z,8.32
2023-05-09T16:30:17.082Z,6.55
2023-05-09T16:32:44.365Z,7.75
2023-05-09T16:35:11.154Z,5.10
2023-05-09T16:37:37.986Z,6.45
2023-05-09T16:40:05.248Z,9.60
2023-05-09T16:42:32.043Z,6.45
2023-05-09T16:44:59.061Z,9.80
2023-05-09T16:47:25.883Z,3.60
2023-05-09T16:49:52.633Z,5.15
2023-05-09T16:52:19.401Z,6.32
2023-05-09T16:54:46.273Z,3.50
2023-05-09T16:57:13.388Z,13.85
2023-05-09T16:59:40.614Z,11.60
2023-05-09T17:02:07.790Z,7.70
2023-05-09T17:04:36.717Z,7.20
2023-05-09T17:07:04.441Z,6.43
2023-05-09T17:09:31.728Z,11.55
2023-05-09T17:11:59.022Z,8.35
2023-05-09T17:14:26.937Z,4.57
2023-05-09T17:16:54.255Z,6.45
2023-05-09T17:19:23.472Z,5.57
2023-05-09T17:21:50.425Z,6.57
2023-05-09T17:24:17.277Z,5.45
2023-05-09T17:26:44.160Z,9.23
2023-05-09T17:29:11.459Z,11.82
2023-05-09T17:31:38.232Z,10.80
2023-05-09T17:34:05.754Z,7.35
2023-05-09T17:36:33.759Z,8.35
2023-05-09T17:39:00.823Z,5.63
2023-05-09T17:41:27.721Z,8.15
2023-05-09T17:43:57.451Z,13.38
2023-05-09T17:46:24.623Z,20.00
2023-05-09T17:48:51.735Z,6.70
2023-05-09T17:51:18.671Z,7.50
2023-05-09T17:53:45.542Z,5.57
2023-05-09T17:56:12.334Z,16.15
2023-05-09T17:58:39.104Z,11.20
2023-05-09T18:01:05.951Z,7.90
2023-05-09T18:03:33.005Z,9.70
2023-05-09T18:06:00.520Z,9.27
2023-05-09T18:08:27.794Z,85.50
2023-05-09T18:10:54.720Z,23.17
2023-05-09T18:13:21.665Z,26.15
2023-05-09T18:15:48.526Z,12.88
2023-05-09T18:18:18.082Z,8.25
2023-05-09T18:20:47.114Z,12.85
2023-05-09T18:23:14.766Z,16.45
2023-05-09T18:25:42.038Z,12.50
2023-05-09T18:28:09.442Z,9.45
2023-05-09T18:30:36.485Z,9.32
2023-05-09T18:33:03.862Z,10.93
2023-05-09T18:35:31.633Z,9.60
2023-05-09T18:37:58.399Z,9.25
2023-05-09T18:40:25.185Z,10.05
2023-05-09T18:42:52.061Z,8.98
2023-05-09T18:45:18.864Z,9.32
2023-05-09T18:47:45.778Z,11.02
2023-05-09T18:50:13.673Z,8.35
2023-05-09T18:52:40.728Z,9.55
2023-05-09T18:55:07.910Z,10.75
2023-05-09T18:57:34.896Z,12.13
2023-05-09T19:00:02.020Z,9.68
2023-05-09T19:02:30.143Z,11.35
2023-05-09T19:04:57.243Z,9.93
2023-05-09T19:07:24.168Z,12.60
2023-05-09T19:09:51.481Z,8.82
2023-05-09T19:12:18.759Z,15.38
2023-05-09T19:14:45.695Z,12.68
2023-05-09T19:17:12.445Z,12.88
2023-05-09T19:19:39.345Z,13.43
2023-05-09T19:22:08.911Z,12.77
2023-05-09T19:24:35.878Z,16.27
2023-05-09T19:27:04.035Z,11.38
2023-05-09T19:29:30.952Z,17.15
2023-05-09T19:31:58.218Z,12.27
2023-05-09T19:34:25.716Z,10.82
2023-05-09T19:36:52.913Z,10.52
2023-05-09T19:39:19.996Z,11.63
2023-05-09T19:41:47.011Z,11.75
2023-05-09T19:44:16.311Z,13.27
2023-05-09T19:46:43.802Z,10.50
2023-05-09T19:49:11.045Z,13.25
2023-05-09T19:51:38.572Z,14.77
2023-05-09T19:54:05.388Z,12.90
2023-05-09T19:56:32.210Z,13.60
2023-05-09T19:58:59.009Z,12.05
2023-05-09T20:01:26.209Z,13.82
2023-05-09T20:03:53.209Z,14.13
2023-05-09T20:06:20.040Z,12.35
2023-05-09T20:08:47.082Z,13.23
2023-05-09T20:11:14.786Z,14.52
2023-05-09T20:13:41.976Z,14.95
2023-05-09T20:16:11.428Z,11.38
2023-05-09T20:18:38.259Z,10.93
2023-05-09T20:21:09.598Z,10.57
2023-05-09T20:23:37.023Z,11.50
2023-05-09T20:26:03.887Z,11.75
2023-05-09T20:28:30.663Z,10.88
2023-05-09T20:30:57.448Z,11.77
2023-05-09T20:33:24.231Z,17.35
2023-05-09T20:35:51.007Z,12.65
2023-05-09T20:38:18.442Z,11.93
2023-05-09T20:40:45.239Z,13.63
2023-05-09T20:43:12.010Z,12.93
2023-05-09T20:45:39.078Z,18.33
2023-05-09T20:48:06.734Z,13.75
2023-05-09T20:50:33.657Z,12.98
2023-05-09T20:53:01.008Z,12.27
2023-05-09T20:55:28.362Z,11.95
2023-05-09T20:57:55.568Z,13.60
2023-05-09T21:00:22.332Z,13.80
2023-05-09T21:02:49.199Z,14.20
2023-05-09T21:05:16.098Z,16.02
2023-05-09T21:07:42.830Z,16.50
2023-05-09T21:10:10.477Z,16.27
2023-05-09T21:12:37.343Z,15.27
2023-05-09T21:15:04.455Z,14.65
2023-05-09T21:17:31.364Z,14.18
2023-05-09T21:19:58.215Z,14.70
2023-05-09T21:22:25.066Z,15.00
2023-05-09T21:24:51.840Z,14.68
2023-05-09T21:27:18.729Z,14.68
2023-05-09T21:29:49.097Z,14.65
2023-05-09T21:32:16.934Z,13.95
2023-05-09T21:34:43.723Z,12.15
2023-05-09T21:37:10.509Z,10.13
2023-05-09T21:39:37.246Z,9.75
2023-05-09T21:42:04.085Z,9.15
2023-05-09T21:44:30.873Z,9.63
2023-05-09T21:46:57.707Z,9.65
2023-05-09T21:49:24.525Z,10.32
2023-05-09T21:51:51.247Z,10.55
2023-05-09T21:54:18.127Z,10.85
2023-05-09T21:56:44.921Z,11.77
2023-05-09T21:59:11.722Z,11.57
2023-05-09T22:01:38.592Z,11.02
2023-05-09T22:04:07.126Z,10.82
2023-05-09T22:06:34.076Z,12.00
2023-05-09T22:09:00.855Z,11.23
2023-05-09T22:11:27.614Z,10.65
2023-05-09T22:13:55.308Z,10.45
2023-05-09T22:16:22.523Z,13.07
2023-05-09T22:18:49.448Z,12.65
2023-05-09T22:21:16.247Z,12.18
2023-05-09T22:23:43.451Z,12.13
2023-05-09T22:26:10.281Z,12.20
2023-05-09T22:28:37.142Z,12.88
2023-05-09T22:31:06.745Z,12.48
2023-05-09T22:33:34.000Z,12.80
2023-05-09T22:36:01.177Z,14.40
2023-05-09T22:38:27.960Z,13.80
2023-05-09T22:40:55.025Z,13.50
2023-05-09T22:43:22.356Z,12.45
2023-05-09T22:45:49.269Z,11.30
2023-05-09T22:48:16.414Z,10.35
2023-05-09T22:50:43.225Z,11.30
2023-05-09T22:53:10.137Z,10.40
2023-05-09T22:55:36.930Z,11.85
2023-05-09T22:58:03.780Z,10.95
2023-05-09T23:00:30.852Z,11.85
2023-05-09T23:02:59.430Z,11.02
2023-05-09T23:05:26.803Z,11.48
2023-05-09T23:07:53.799Z,12.02
2023-05-09T23:10:20.937Z,10.80
2023-05-09T23:12:47.716Z,12.02
2023-05-09T23:15:14.617Z,11.00
2023-05-09T23:17:41.834Z,10.25
2023-05-09T23:20:09.029Z,11.35
2023-05-09T23:22:36.314Z,10.75
2023-05-09T23:25:03.355Z,10.52
2023-05-09T23:27:31.236Z,10.38
2023-05-09T23:29:58.111Z,10.35
2023-05-09T23:32:24.854Z,10.65
2023-05-09T23:34:52.146Z,10.63
2023-05-09T23:37:18.901Z,9.10
2023-05-09T23:39:45.773Z,10.70
2023-05-09T23:42:12.503Z,10.23
2023-05-09T23:44:39.373Z,10.63
2023-05-09T23:47:06.347Z,11.27
2023-05-09T23:49:33.084Z,11.48
2023-05-09T23:51:59.923Z,11.13
2023-05-09T23:54:27.153Z,10.43
2023-05-09T23:56:54.138Z,10.32
2023-05-09T23:59:20.924Z,10.98
